createdAt,value
2019-03-30T00:02:43.877Z,3.13
2019-03-30T00:06:48.291Z,3.07
2019-03-30T00:10:52.704Z,3.27
2019-03-30T00:14:57.169Z,3.17
2019-03-30T00:19:01.463Z,2.93
2019-03-30T00:23:05.605Z,3.10
2019-03-30T00:27:09.772Z,3.03
2019-03-30T00:31:13.926Z,2.47
2019-03-30T00:35:18.261Z,3.70
2019-03-30T00:39:22.563Z,2.93
2019-03-30T00:43:26.770Z,3.13
2019-03-30T00:47:31.126Z,3.00
2019-03-30T00:51:35.424Z,2.50
2019-03-30T00:55:39.726Z,2.80
2019-03-30T00:59:43.938Z,2.77
2019-03-30T01:03:48.296Z,2.90
2019-03-30T01:07:52.608Z,2.43
2019-03-30T01:11:56.881Z,2.83
2019-03-30T01:16:01.261Z,2.87
2019-03-30T01:20:06.100Z,2.87
2019-03-30T01:24:10.428Z,2.73
2019-03-30T01:28:15.728Z,2.23
2019-03-30T01:32:20.176Z,2.20
2019-03-30T01:36:24.377Z,2.60
2019-03-30T01:40:28.615Z,2.90
2019-03-30T01:44:32.798Z,2.67
2019-03-30T01:48:37.115Z,3.30
2019-03-30T01:52:41.423Z,2.70
2019-03-30T01:56:45.999Z,2.47
2019-03-30T02:00:50.646Z,3.13
2019-03-30T02:04:54.796Z,3.03
2019-03-30T02:08:59.074Z,3.00
2019-03-30T02:13:03.425Z,3.00
2019-03-30T02:17:07.701Z,3.10
2019-03-30T02:21:12.276Z,2.90
2019-03-30T02:25:16.600Z,3.30
2019-03-30T02:29:20.949Z,3.00
2019-03-30T02:33:25.104Z,3.23
2019-03-30T02:37:29.454Z,3.50
2019-03-30T02:41:33.837Z,2.80
2019-03-30T02:45:38.353Z,2.87
2019-03-30T02:49:42.629Z,2.83
2019-03-30T02:53:47.054Z,3.07
2019-03-30T02:57:51.391Z,2.80
2019-03-30T03:01:55.844Z,3.17
2019-03-30T03:06:00.332Z,2.73
2019-03-30T03:10:05.267Z,2.97
2019-03-30T03:14:09.530Z,3.33
2019-03-30T03:18:13.773Z,3.63
2019-03-30T03:22:18.231Z,3.43
2019-03-30T03:26:22.392Z,3.30
2019-03-30T03:30:26.682Z,4.13
2019-03-30T03:34:31.013Z,3.50
2019-03-30T03:38:35.310Z,3.10
2019-03-30T03:42:39.626Z,3.13
2019-03-30T03:46:43.982Z,4.00
2019-03-30T03:50:51.018Z,3.30
2019-03-30T03:54:55.709Z,3.50
2019-03-30T04:03:30.440Z,3.13
2019-03-30T04:07:36.405Z,3.30
2019-03-30T04:11:43.082Z,2.93
2019-03-30T04:15:47.405Z,3.80
2019-03-30T04:19:51.795Z,3.40
2019-03-30T04:23:56.153Z,3.20
2019-03-30T04:28:00.749Z,3.27
2019-03-30T04:32:05.013Z,3.50
2019-03-30T04:36:09.200Z,3.30
2019-03-30T04:40:13.779Z,3.60
2019-03-30T04:44:18.129Z,3.03
2019-03-30T04:48:22.374Z,3.47
2019-03-30T04:52:26.625Z,3.33
2019-03-30T04:56:30.890Z,3.50
2019-03-30T05:00:35.341Z,3.40
2019-03-30T05:04:39.640Z,3.70
2019-03-30T05:08:43.805Z,3.50
2019-03-30T05:12:48.064Z,3.70
2019-03-30T05:16:52.225Z,3.30
2019-03-30T05:20:56.377Z,4.07
2019-03-30T05:25:00.818Z,3.50
2019-03-30T05:29:05.113Z,3.93
2019-03-30T05:33:09.436Z,3.83
2019-03-30T05:37:13.783Z,3.57
2019-03-30T05:41:17.959Z,4.20
2019-03-30T05:45:22.166Z,4.13
2019-03-30T05:49:26.397Z,3.37
2019-03-30T05:53:30.774Z,3.60
2019-03-30T05:57:35.094Z,3.80
2019-03-30T06:01:39.371Z,3.33
2019-03-30T06:05:43.814Z,3.73
2019-03-30T06:09:48.006Z,3.63
2019-03-30T06:13:52.268Z,3.63
2019-03-30T06:17:56.561Z,3.83
2019-03-30T06:22:00.872Z,3.77
2019-03-30T06:26:05.238Z,3.77
2019-03-30T06:30:25.408Z,4.03
2019-03-30T06:34:29.649Z,3.67
2019-03-30T06:38:34.014Z,3.80
2019-03-30T06:42:38.450Z,3.93
2019-03-30T06:46:42.850Z,3.87
2019-03-30T06:50:47.245Z,4.00
2019-03-30T06:54:51.477Z,3.77
2019-03-30T06:58:55.789Z,4.40
2019-03-30T07:03:00.593Z,4.07
2019-03-30T07:07:04.937Z,4.23
2019-03-30T07:11:20.716Z,4.13
2019-03-30T07:15:15.462Z,3.80
2019-03-30T07:19:20.381Z,3.67
2019-03-30T07:23:24.634Z,3.90
2019-03-30T07:27:28.911Z,3.63
2019-03-30T07:31:33.236Z,3.33
2019-03-30T07:35:37.543Z,3.27
2019-03-30T07:39:41.908Z,4.30
2019-03-30T07:43:46.270Z,3.57
2019-03-30T07:47:50.913Z,4.03
2019-03-30T07:51:55.190Z,3.70
2019-03-30T07:56:08.342Z,3.80
2019-03-30T08:00:05.554Z,3.60
2019-03-30T08:04:09.919Z,3.73
2019-03-30T08:08:14.276Z,3.50
2019-03-30T08:12:18.580Z,3.57
2019-03-30T08:16:22.919Z,4.05
2019-03-30T08:20:28.354Z,3.75
2019-03-30T08:24:32.657Z,4.45
2019-03-30T08:28:36.987Z,4.00
2019-03-30T08:32:41.417Z,3.80
2019-03-30T08:36:45.930Z,3.83
2019-03-30T08:40:50.264Z,3.90
2019-03-30T08:44:54.641Z,4.20
2019-03-30T08:48:59.059Z,4.40
2019-03-30T08:53:03.473Z,4.22
2019-03-30T08:57:07.922Z,3.77
2019-03-30T09:01:12.325Z,4.10
2019-03-30T09:05:16.712Z,4.40
2019-03-30T09:09:21.021Z,3.60
2019-03-30T09:13:25.433Z,3.70
2019-03-30T09:17:29.791Z,3.25
2019-03-30T09:21:34.338Z,3.70
2019-03-30T09:25:38.729Z,4.25
2019-03-30T09:29:42.967Z,3.95
2019-03-30T09:33:48.324Z,3.60
2019-03-30T09:37:53.807Z,4.00
2019-03-30T09:41:58.068Z,3.77
2019-03-30T09:46:02.470Z,3.98
2019-03-30T09:50:08.249Z,4.05
2019-03-30T09:54:23.213Z,3.30
2019-03-30T09:58:18.698Z,3.30
2019-03-30T10:02:23.144Z,3.37
2019-03-30T10:06:34.348Z,3.47
2019-03-30T10:10:33.688Z,3.50
2019-03-30T10:14:38.040Z,3.72
2019-03-30T10:18:42.417Z,4.20
2019-03-30T10:22:47.745Z,3.70
2019-03-30T10:26:52.129Z,3.45
2019-03-30T10:30:56.542Z,3.30
2019-03-30T10:39:06.702Z,2.95
2019-03-30T10:43:11.197Z,2.70
2019-03-30T10:47:16.704Z,2.85
2019-03-30T10:51:21.102Z,3.77
2019-03-30T10:55:25.575Z,3.87
2019-03-30T10:59:29.947Z,3.40
2019-03-30T11:03:36.077Z,3.05
2019-03-30T11:07:40.549Z,2.90
2019-03-30T11:11:44.895Z,2.77
2019-03-30T11:15:49.289Z,3.87
2019-03-30T11:19:53.734Z,3.77
2019-03-30T11:23:58.172Z,3.30
2019-03-30T11:28:02.665Z,3.42
2019-03-30T11:32:08.069Z,3.17
2019-03-30T11:36:12.358Z,2.85
2019-03-30T11:40:16.864Z,2.60
2019-03-30T11:44:21.306Z,2.77
2019-03-30T11:48:25.658Z,2.67
2019-03-30T11:52:30.049Z,2.45
2019-03-30T11:56:34.412Z,2.70
2019-03-30T12:00:38.819Z,2.67
2019-03-30T12:04:43.079Z,2.90
2019-03-30T12:08:47.667Z,2.62
2019-03-30T12:12:53.210Z,2.80
2019-03-30T12:16:57.696Z,2.65
2019-03-30T12:21:03.301Z,2.75
2019-03-30T12:25:08.065Z,2.87
2019-03-30T12:29:12.524Z,2.37
2019-03-30T12:33:16.995Z,2.55
2019-03-30T12:37:21.372Z,2.47
2019-03-30T12:41:25.835Z,2.52
2019-03-30T12:45:30.269Z,2.35
2019-03-30T12:49:34.713Z,2.05
2019-03-30T12:53:49.652Z,1.92
2019-03-30T12:57:45.273Z,2.30
2019-03-30T13:01:49.818Z,1.67
2019-03-30T13:05:54.417Z,1.85
2019-03-30T13:09:58.887Z,2.42
2019-03-30T13:14:03.366Z,1.67
2019-03-30T13:18:07.712Z,1.70
2019-03-30T13:22:11.952Z,1.98
2019-03-30T13:26:16.302Z,1.95
2019-03-30T13:30:21.003Z,2.17
2019-03-30T13:34:25.584Z,1.92
2019-03-30T13:38:30.007Z,1.57
2019-03-30T13:42:34.417Z,1.80
2019-03-30T13:46:38.869Z,1.50
2019-03-30T13:50:43.216Z,2.08
2019-03-30T13:54:47.622Z,1.60
2019-03-30T13:58:52.077Z,1.70
2019-03-30T14:02:56.427Z,1.85
2019-03-30T14:07:00.851Z,1.57
2019-03-30T14:11:05.458Z,1.50
2019-03-30T14:15:09.872Z,1.57
2019-03-30T14:19:15.421Z,1.75
2019-03-30T14:23:19.748Z,1.60
2019-03-30T14:27:24.200Z,1.50
2019-03-30T14:31:28.601Z,1.60
2019-03-30T14:35:33.014Z,1.45
2019-03-30T14:39:37.458Z,1.87
2019-03-30T14:43:42.027Z,1.50
2019-03-30T14:47:46.512Z,2.20
2019-03-30T14:51:50.925Z,1.65
2019-03-30T14:55:55.332Z,2.10
2019-03-30T14:59:59.791Z,1.55
2019-03-30T15:04:04.181Z,1.40
2019-03-30T15:08:08.715Z,1.42
2019-03-30T15:12:13.064Z,1.98
2019-03-30T15:16:17.522Z,1.80
2019-03-30T15:20:22.295Z,1.80
2019-03-30T15:24:26.661Z,2.62
2019-03-30T15:28:30.950Z,2.62
2019-03-30T15:32:35.195Z,3.00
2019-03-30T15:36:39.619Z,2.02
2019-03-30T15:40:44.228Z,2.05
2019-03-30T15:44:48.629Z,1.65
2019-03-30T15:48:52.993Z,1.30
2019-03-30T15:52:58.844Z,1.45
2019-03-30T15:57:14.078Z,1.57
2019-03-30T16:01:11.257Z,1.40
2019-03-30T16:05:16.036Z,1.60
2019-03-30T16:09:20.566Z,1.47
2019-03-30T16:13:25.006Z,1.70
2019-03-30T16:17:29.597Z,1.32
2019-03-30T16:21:34.098Z,1.52
2019-03-30T16:25:38.558Z,1.37
2019-03-30T16:29:42.971Z,1.20
2019-03-30T16:33:47.464Z,1.20
2019-03-30T16:37:51.947Z,1.10
2019-03-30T16:41:56.504Z,1.15
2019-03-30T16:46:00.938Z,1.30
2019-03-30T16:50:07.150Z,1.40
2019-03-30T16:54:11.648Z,1.22
2019-03-30T16:58:15.981Z,1.20
2019-03-30T17:02:20.263Z,1.30
2019-03-30T17:06:24.807Z,1.80
2019-03-30T17:10:29.680Z,3.42
2019-03-30T17:14:34.557Z,11.90
2019-03-30T17:18:38.909Z,6.20
2019-03-30T17:22:43.384Z,8.88
2019-03-30T17:26:48.444Z,4.30
2019-03-30T17:30:53.609Z,3.42
2019-03-30T17:34:58.082Z,3.70
2019-03-30T17:39:02.650Z,3.55
2019-03-30T17:43:07.448Z,6.17
2019-03-30T17:47:11.892Z,7.65
2019-03-30T17:51:16.702Z,17.00
2019-03-30T17:55:32.989Z,15.55
2019-03-30T17:59:27.286Z,14.38
2019-03-30T18:03:31.681Z,12.28
2019-03-30T18:07:36.252Z,19.77
2019-03-30T18:11:40.825Z,5.62
2019-03-30T18:15:45.232Z,6.22
2019-03-30T18:19:50.824Z,7.10
2019-03-30T18:23:55.152Z,5.80
2019-03-30T18:27:59.499Z,4.97
2019-03-30T18:32:03.858Z,4.90
2019-03-30T18:36:08.452Z,4.72
2019-03-30T18:40:15.941Z,4.53
2019-03-30T18:44:20.742Z,5.62
2019-03-30T18:48:25.108Z,5.97
2019-03-30T18:52:29.738Z,5.67
2019-03-30T18:56:34.216Z,6.05
2019-03-30T19:00:39.599Z,6.60
2019-03-30T19:04:43.957Z,6.35
2019-03-30T19:08:48.408Z,6.72
2019-03-30T19:12:52.753Z,6.85
2019-03-30T19:16:57.129Z,6.97
2019-03-30T19:21:01.576Z,6.65
2019-03-30T19:25:07.126Z,8.38
2019-03-30T19:29:11.703Z,10.38
2019-03-30T19:33:16.068Z,9.78
2019-03-30T19:37:20.566Z,9.07
2019-03-30T19:41:24.905Z,7.95
2019-03-30T19:45:29.749Z,7.97
2019-03-30T19:49:34.233Z,7.80
2019-03-30T19:53:38.701Z,8.68
2019-03-30T19:57:43.298Z,7.97
2019-03-30T20:01:47.656Z,8.23
2019-03-30T20:05:52.090Z,8.38
2019-03-30T20:09:56.488Z,9.38
2019-03-30T20:14:00.950Z,9.15
2019-03-30T20:18:05.310Z,9.80
2019-03-30T20:22:09.654Z,9.00
2019-03-30T20:26:14.485Z,8.93
2019-03-30T20:30:18.824Z,8.53
2019-03-30T20:34:23.334Z,8.83
2019-03-30T20:38:27.702Z,9.53
2019-03-30T20:42:32.207Z,8.60
2019-03-30T20:46:36.568Z,9.13
2019-03-30T20:50:41.134Z,8.90
2019-03-30T20:54:45.483Z,8.25
2019-03-30T20:58:49.970Z,8.60
2019-03-30T21:02:54.336Z,7.97
2019-03-30T21:06:58.754Z,7.97
2019-03-30T21:11:03.324Z,8.30
2019-03-30T21:15:08.725Z,7.27
2019-03-30T21:19:13.198Z,7.60
2019-03-30T21:23:17.542Z,7.67
2019-03-30T21:27:22.862Z,9.60
2019-03-30T21:31:27.369Z,10.73
2019-03-30T21:35:31.725Z,13.10
2019-03-30T21:39:36.172Z,19.17
2019-03-30T21:43:41.461Z,20.35
2019-03-30T21:47:45.747Z,19.83
2019-03-30T21:51:50.138Z,18.67
2019-03-30T21:55:54.543Z,18.17
2019-03-30T22:00:09.769Z,15.47
2019-03-30T22:04:04.932Z,12.17
2019-03-30T22:08:09.514Z,10.93
2019-03-30T22:12:13.865Z,11.70
2019-03-30T22:16:18.161Z,12.13
2019-03-30T22:20:22.562Z,10.93
2019-03-30T22:24:26.901Z,10.00
2019-03-30T22:28:31.176Z,8.47
2019-03-30T22:32:35.517Z,9.80
2019-03-30T22:36:39.697Z,10.23
2019-03-30T22:40:44.202Z,9.37
2019-03-30T22:44:48.612Z,10.73
2019-03-30T22:48:53.131Z,10.40
2019-03-30T22:52:57.560Z,11.20
2019-03-30T22:57:01.834Z,7.83
2019-03-30T23:01:07.955Z,33.33
2019-03-30T23:05:12.422Z,44.97
2019-03-30T23:09:16.892Z,32.07
2019-03-30T23:13:21.153Z,34.03
2019-03-30T23:17:25.658Z,20.97
2019-03-30T23:21:29.896Z,14.80
2019-03-30T23:25:34.226Z,11.10
2019-03-30T23:29:38.682Z,9.70
2019-03-30T23:33:43.234Z,8.73
2019-03-30T23:37:47.774Z,14.00
2019-03-30T23:41:52.124Z,10.87
2019-03-30T23:45:56.399Z,10.80
2019-03-30T23:50:00.890Z,12.27
2019-03-30T23:54:06.912Z,16.80
2019-03-30T23:58:11.319Z,42.60
